sensor_id;sensor_type;location;lat;lon;timestamp;temperature;humidity
40662;DHT22;26349;51.202;4.444;2022-07-09T00:00:59;20.30;78.00
40662;DHT22;26349;51.202;4.444;2022-07-09T00:03:25;20.30;78.10
40662;DHT22;26349;51.202;4.444;2022-07-09T00:05:51;20.20;78.20
40662;DHT22;26349;51.202;4.444;2022-07-09T00:08:16;20.20;78.30
40662;DHT22;26349;51.202;4.444;2022-07-09T00:10:42;20.20;78.50
40662;DHT22;26349;51.202;4.444;2022-07-09T00:13:07;20.20;78.70
40662;DHT22;26349;51.202;4.444;2022-07-09T00:15:33;20.20;78.70
40662;DHT22;26349;51.202;4.444;2022-07-09T00:17:59;20.20;78.80
40662;DHT22;26349;51.202;4.444;2022-07-09T00:20:25;20.10;79.00
40662;DHT22;26349;51.202;4.444;2022-07-09T00:22:50;20.20;78.70
40662;DHT22;26349;51.202;4.444;2022-07-09T00:25:16;20.20;77.90
40662;DHT22;26349;51.202;4.444;2022-07-09T00:27:42;20.20;77.60
40662;DHT22;26349;51.202;4.444;2022-07-09T00:30:08;20.10;77.80
40662;DHT22;26349;51.202;4.444;2022-07-09T00:32:34;20.10;78.00
40662;DHT22;26349;51.202;4.444;2022-07-09T00:34:59;20.10;78.00
40662;DHT22;26349;51.202;4.444;2022-07-09T00:37:25;20.10;78.00
40662;DHT22;26349;51.202;4.444;2022-07-09T00:39:51;20.00;77.80
40662;DHT22;26349;51.202;4.444;2022-07-09T00:42:17;20.00;78.00
40662;DHT22;26349;51.202;4.444;2022-07-09T00:44:43;20.00;78.20
40662;DHT22;26349;51.202;4.444;2022-07-09T00:47:13;20.00;78.40
40662;DHT22;26349;51.202;4.444;2022-07-09T00:49:41;19.90;78.90
40662;DHT22;26349;51.202;4.444;2022-07-09T00:52:13;19.80;78.70
40662;DHT22;26349;51.202;4.444;2022-07-09T00:54:40;19.80;79.10
40662;DHT22;26349;51.202;4.444;2022-07-09T00:57:08;19.80;79.10
40662;DHT22;26349;51.202;4.444;2022-07-09T00:59:35;19.80;78.60
40662;DHT22;26349;51.202;4.444;2022-07-09T01:02:01;19.80;78.60
40662;DHT22;26349;51.202;4.444;2022-07-09T01:04:27;19.80;78.60
40662;DHT22;26349;51.202;4.444;2022-07-09T01:06:52;19.90;78.80
40662;DHT22;26349;51.202;4.444;2022-07-09T01:09:18;19.80;78.90
40662;DHT22;26349;51.202;4.444;2022-07-09T01:11:45;19.80;79.00
40662;DHT22;26349;51.202;4.444;2022-07-09T01:14:11;19.80;79.10
40662;DHT22;26349;51.202;4.444;2022-07-09T01:16:37;19.80;78.80
40662;DHT22;26349;51.202;4.444;2022-07-09T01:19:04;19.80;79.00
40662;DHT22;26349;51.202;4.444;2022-07-09T01:21:30;19.70;79.00
40662;DHT22;26349;51.202;4.444;2022-07-09T01:23:56;19.60;79.10
40662;DHT22;26349;51.202;4.444;2022-07-09T01:26:23;19.60;79.30
40662;DHT22;26349;51.202;4.444;2022-07-09T01:28:49;19.60;79.20
40662;DHT22;26349;51.202;4.444;2022-07-09T01:31:15;19.60;79.20
40662;DHT22;26349;51.202;4.444;2022-07-09T01:33:41;19.60;79.70
40662;DHT22;26349;51.202;4.444;2022-07-09T01:36:08;19.60;79.70
40662;DHT22;26349;51.202;4.444;2022-07-09T01:38:33;19.50;80.40
40662;DHT22;26349;51.202;4.444;2022-07-09T01:40:59;19.50;81.20
40662;DHT22;26349;51.202;4.444;2022-07-09T01:43:25;19.50;81.10
40662;DHT22;26349;51.202;4.444;2022-07-09T01:45:51;19.50;81.50
40662;DHT22;26349;51.202;4.444;2022-07-09T01:48:17;19.50;81.20
40662;DHT22;26349;51.202;4.444;2022-07-09T01:50:43;19.50;81.30
40662;DHT22;26349;51.202;4.444;2022-07-09T01:53:09;19.50;81.60
40662;DHT22;26349;51.202;4.444;2022-07-09T01:55:35;19.40;81.90
40662;DHT22;26349;51.202;4.444;2022-07-09T01:58:01;19.40;82.70
40662;DHT22;26349;51.202;4.444;2022-07-09T02:00:27;19.40;82.00
40662;DHT22;26349;51.202;4.444;2022-07-09T02:02:55;19.40;82.40
40662;DHT22;26349;51.202;4.444;2022-07-09T02:05:21;19.40;82.50
40662;DHT22;26349;51.202;4.444;2022-07-09T02:07:46;19.40;82.30
40662;DHT22;26349;51.202;4.444;2022-07-09T02:10:12;19.30;82.70
40662;DHT22;26349;51.202;4.444;2022-07-09T02:12:38;19.30;83.30
40662;DHT22;26349;51.202;4.444;2022-07-09T02:15:05;19.30;83.60
40662;DHT22;26349;51.202;4.444;2022-07-09T02:17:31;19.30;83.80
40662;DHT22;26349;51.202;4.444;2022-07-09T02:19:57;19.30;83.90
40662;DHT22;26349;51.202;4.444;2022-07-09T02:22:23;19.30;83.90
40662;DHT22;26349;51.202;4.444;2022-07-09T02:24:49;19.30;83.90
40662;DHT22;26349;51.202;4.444;2022-07-09T02:27:14;19.30;83.90
40662;DHT22;26349;51.202;4.444;2022-07-09T02:29:40;19.20;83.90
40662;DHT22;26349;51.202;4.444;2022-07-09T02:32:06;19.20;83.90
40662;DHT22;26349;51.202;4.444;2022-07-09T02:34:32;19.20;84.20
40662;DHT22;26349;51.202;4.444;2022-07-09T02:36:58;19.20;84.40
40662;DHT22;26349;51.202;4.444;2022-07-09T02:39:23;19.20;84.40
40662;DHT22;26349;51.202;4.444;2022-07-09T02:41:50;19.20;84.60
40662;DHT22;26349;51.202;4.444;2022-07-09T02:44:16;19.20;84.70
40662;DHT22;26349;51.202;4.444;2022-07-09T02:46:41;19.20;84.90
40662;DHT22;26349;51.202;4.444;2022-07-09T02:49:07;19.10;85.10
40662;DHT22;26349;51.202;4.444;2022-07-09T02:51:33;19.20;85.30
40662;DHT22;26349;51.202;4.444;2022-07-09T02:53:58;19.20;85.50
40662;DHT22;26349;51.202;4.444;2022-07-09T02:56:24;19.20;85.50
40662;DHT22;26349;51.202;4.444;2022-07-09T02:58:50;19.20;85.40
40662;DHT22;26349;51.202;4.444;2022-07-09T03:01:15;19.20;85.30
40662;DHT22;26349;51.202;4.444;2022-07-09T03:03:41;19.30;85.30
40662;DHT22;26349;51.202;4.444;2022-07-09T03:06:06;19.30;85.20
40662;DHT22;26349;51.202;4.444;2022-07-09T03:08:34;19.40;85.00
40662;DHT22;26349;51.202;4.444;2022-07-09T03:11:05;19.40;84.70
40662;DHT22;26349;51.202;4.444;2022-07-09T03:13:35;19.40;84.50
40662;DHT22;26349;51.202;4.444;2022-07-09T03:16:04;19.40;84.20
40662;DHT22;26349;51.202;4.444;2022-07-09T03:18:30;19.40;83.80
40662;DHT22;26349;51.202;4.444;2022-07-09T03:20:56;19.40;83.30
40662;DHT22;26349;51.202;4.444;2022-07-09T03:23:21;19.40;83.00
40662;DHT22;26349;51.202;4.444;2022-07-09T03:25:48;19.40;82.90
40662;DHT22;26349;51.202;4.444;2022-07-09T03:28:13;19.40;82.80
40662;DHT22;26349;51.202;4.444;2022-07-09T03:30:39;19.40;82.70
40662;DHT22;26349;51.202;4.444;2022-07-09T03:33:05;19.40;82.40
40662;DHT22;26349;51.202;4.444;2022-07-09T03:35:30;19.40;82.40
40662;DHT22;26349;51.202;4.444;2022-07-09T03:37:56;19.40;82.20
40662;DHT22;26349;51.202;4.444;2022-07-09T03:40:22;19.40;82.00
40662;DHT22;26349;51.202;4.444;2022-07-09T03:42:48;19.40;81.90
40662;DHT22;26349;51.202;4.444;2022-07-09T03:45:14;19.40;81.80
40662;DHT22;26349;51.202;4.444;2022-07-09T03:47:45;19.30;81.70
40662;DHT22;26349;51.202;4.444;2022-07-09T03:50:13;19.30;81.50
40662;DHT22;26349;51.202;4.444;2022-07-09T03:52:39;19.30;81.60
40662;DHT22;26349;51.202;4.444;2022-07-09T03:55:06;19.30;81.60
40662;DHT22;26349;51.202;4.444;2022-07-09T03:57:31;19.30;81.60
40662;DHT22;26349;51.202;4.444;2022-07-09T03:59:58;19.30;81.60
40662;DHT22;26349;51.202;4.444;2022-07-09T04:02:23;19.30;81.50
40662;DHT22;26349;51.202;4.444;2022-07-09T04:04:49;19.30;81.40
40662;DHT22;26349;51.202;4.444;2022-07-09T04:07:15;19.30;81.40
40662;DHT22;26349;51.202;4.444;2022-07-09T04:09:41;19.40;81.50
40662;DHT22;26349;51.202;4.444;2022-07-09T04:12:07;19.40;81.40
40662;DHT22;26349;51.202;4.444;2022-07-09T04:14:33;19.40;81.40
40662;DHT22;26349;51.202;4.444;2022-07-09T04:16:59;19.40;81.10
40662;DHT22;26349;51.202;4.444;2022-07-09T04:19:24;19.50;80.80
40662;DHT22;26349;51.202;4.444;2022-07-09T04:21:50;19.50;80.30
40662;DHT22;26349;51.202;4.444;2022-07-09T04:24:15;19.50;80.30
40662;DHT22;26349;51.202;4.444;2022-07-09T04:26:43;19.50;80.60
40662;DHT22;26349;51.202;4.444;2022-07-09T04:29:09;19.50;81.00
40662;DHT22;26349;51.202;4.444;2022-07-09T04:31:36;19.50;81.10
40662;DHT22;26349;51.202;4.444;2022-07-09T04:34:01;19.50;81.10
40662;DHT22;26349;51.202;4.444;2022-07-09T04:36:27;19.50;81.10
40662;DHT22;26349;51.202;4.444;2022-07-09T04:38:54;19.50;81.10
40662;DHT22;26349;51.202;4.444;2022-07-09T04:41:21;19.50;81.20
40662;DHT22;26349;51.202;4.444;2022-07-09T04:43:47;19.50;81.10
40662;DHT22;26349;51.202;4.444;2022-07-09T04:46:13;19.60;80.80
40662;DHT22;26349;51.202;4.444;2022-07-09T04:48:39;19.70;80.60
40662;DHT22;26349;51.202;4.444;2022-07-09T04:51:05;19.70;80.40
40662;DHT22;26349;51.202;4.444;2022-07-09T04:53:31;19.80;80.20
40662;DHT22;26349;51.202;4.444;2022-07-09T04:55:56;19.80;80.00
40662;DHT22;26349;51.202;4.444;2022-07-09T04:58:22;20.10;78.80
40662;DHT22;26349;51.202;4.444;2022-07-09T05:00:48;20.20;78.10
40662;DHT22;26349;51.202;4.444;2022-07-09T05:03:14;20.20;77.90
40662;DHT22;26349;51.202;4.444;2022-07-09T05:05:39;20.20;77.50
40662;DHT22;26349;51.202;4.444;2022-07-09T05:08:05;20.30;77.40
40662;DHT22;26349;51.202;4.444;2022-07-09T05:10:31;20.30;76.80
40662;DHT22;26349;51.202;4.444;2022-07-09T05:12:57;20.40;76.30
40662;DHT22;26349;51.202;4.444;2022-07-09T05:15:22;20.50;76.00
40662;DHT22;26349;51.202;4.444;2022-07-09T05:17:48;20.60;75.20
40662;DHT22;26349;51.202;4.444;2022-07-09T05:20:14;20.70;74.80
40662;DHT22;26349;51.202;4.444;2022-07-09T05:22:40;20.80;74.00
40662;DHT22;26349;51.202;4.444;2022-07-09T05:25:06;20.90;73.50
40662;DHT22;26349;51.202;4.444;2022-07-09T05:27:32;21.20;73.00
40662;DHT22;26349;51.202;4.444;2022-07-09T05:29:58;21.90;70.60
40662;DHT22;26349;51.202;4.444;2022-07-09T05:32:24;22.80;67.00
40662;DHT22;26349;51.202;4.444;2022-07-09T05:34:49;23.60;64.00
40662;DHT22;26349;51.202;4.444;2022-07-09T05:37:15;24.30;61.30
40662;DHT22;26349;51.202;4.444;2022-07-09T05:39:41;25.10;58.50
40662;DHT22;26349;51.202;4.444;2022-07-09T05:42:06;25.60;55.80
40662;DHT22;26349;51.202;4.444;2022-07-09T05:44:32;25.70;54.60
40662;DHT22;26349;51.202;4.444;2022-07-09T05:46:58;25.50;54.80
40662;DHT22;26349;51.202;4.444;2022-07-09T05:49:24;25.00;55.90
40662;DHT22;26349;51.202;4.444;2022-07-09T05:51:51;24.60;57.40
40662;DHT22;26349;51.202;4.444;2022-07-09T05:54:16;24.20;58.70
40662;DHT22;26349;51.202;4.444;2022-07-09T05:56:42;23.80;60.30
40662;DHT22;26349;51.202;4.444;2022-07-09T05:59:08;23.50;61.20
40662;DHT22;26349;51.202;4.444;2022-07-09T06:01:34;23.20;62.00
40662;DHT22;26349;51.202;4.444;2022-07-09T06:04:05;23.30;62.80
40662;DHT22;26349;51.202;4.444;2022-07-09T06:06:32;23.90;62.20
40662;DHT22;26349;51.202;4.444;2022-07-09T06:08:58;24.40;60.20
40662;DHT22;26349;51.202;4.444;2022-07-09T06:11:24;24.90;58.20
40662;DHT22;26349;51.202;4.444;2022-07-09T06:13:49;25.00;56.30
40662;DHT22;26349;51.202;4.444;2022-07-09T06:16:15;25.00;55.80
40662;DHT22;26349;51.202;4.444;2022-07-09T06:18:41;24.80;56.30
40662;DHT22;26349;51.202;4.444;2022-07-09T06:21:07;24.70;56.50
40662;DHT22;26349;51.202;4.444;2022-07-09T06:23:32;24.70;56.80
40662;DHT22;26349;51.202;4.444;2022-07-09T06:25:58;24.40;56.70
40662;DHT22;26349;51.202;4.444;2022-07-09T06:28:24;23.90;57.00
40662;DHT22;26349;51.202;4.444;2022-07-09T06:30:49;23.60;57.60
40662;DHT22;26349;51.202;4.444;2022-07-09T06:33:15;23.30;58.00
40662;DHT22;26349;51.202;4.444;2022-07-09T06:35:40;23.20;58.70
40662;DHT22;26349;51.202;4.444;2022-07-09T06:38:06;23.10;59.60
40662;DHT22;26349;51.202;4.444;2022-07-09T06:40:32;22.90;60.00
40662;DHT22;26349;51.202;4.444;2022-07-09T06:43:03;22.80;60.60
40662;DHT22;26349;51.202;4.444;2022-07-09T06:45:29;22.60;61.30
40662;DHT22;26349;51.202;4.444;2022-07-09T06:47:55;22.60;61.60
40662;DHT22;26349;51.202;4.444;2022-07-09T06:50:20;22.60;61.40
40662;DHT22;26349;51.202;4.444;2022-07-09T06:52:46;22.90;61.50
40662;DHT22;26349;51.202;4.444;2022-07-09T06:55:12;22.90;61.20
40662;DHT22;26349;51.202;4.444;2022-07-09T06:57:38;22.90;62.10
40662;DHT22;26349;51.202;4.444;2022-07-09T07:00:05;22.80;60.70
40662;DHT22;26349;51.202;4.444;2022-07-09T07:02:31;22.80;60.60
40662;DHT22;26349;51.202;4.444;2022-07-09T07:04:57;22.90;60.50
40662;DHT22;26349;51.202;4.444;2022-07-09T07:07:23;23.00;60.10
40662;DHT22;26349;51.202;4.444;2022-07-09T07:09:49;23.00;59.90
40662;DHT22;26349;51.202;4.444;2022-07-09T07:12:14;22.80;60.50
40662;DHT22;26349;51.202;4.444;2022-07-09T07:14:40;22.90;60.80
40662;DHT22;26349;51.202;4.444;2022-07-09T07:17:06;22.90;60.60
40662;DHT22;26349;51.202;4.444;2022-07-09T07:19:31;22.80;60.50
40662;DHT22;26349;51.202;4.444;2022-07-09T07:21:57;23.00;61.00
40662;DHT22;26349;51.202;4.444;2022-07-09T07:24:23;23.30;60.30
40662;DHT22;26349;51.202;4.444;2022-07-09T07:26:49;23.60;58.90
40662;DHT22;26349;51.202;4.444;2022-07-09T07:29:14;24.10;58.20
40662;DHT22;26349;51.202;4.444;2022-07-09T07:31:40;24.30;58.20
40662;DHT22;26349;51.202;4.444;2022-07-09T07:34:06;24.40;57.60
40662;DHT22;26349;51.202;4.444;2022-07-09T07:36:32;24.60;57.00
40662;DHT22;26349;51.202;4.444;2022-07-09T07:38:58;24.60;57.50
40662;DHT22;26349;51.202;4.444;2022-07-09T07:41:24;24.20;58.10
40662;DHT22;26349;51.202;4.444;2022-07-09T07:43:49;24.00;59.40
40662;DHT22;26349;51.202;4.444;2022-07-09T07:46:15;24.30;59.30
40662;DHT22;26349;51.202;4.444;2022-07-09T07:48:41;24.10;59.50
40662;DHT22;26349;51.202;4.444;2022-07-09T07:51:08;23.90;60.80
40662;DHT22;26349;51.202;4.444;2022-07-09T07:53:34;23.60;61.30
40662;DHT22;26349;51.202;4.444;2022-07-09T07:56:04;23.50;62.40
40662;DHT22;26349;51.202;4.444;2022-07-09T07:58:30;23.50;62.80
40662;DHT22;26349;51.202;4.444;2022-07-09T08:00:56;23.50;63.30
40662;DHT22;26349;51.202;4.444;2022-07-09T08:03:22;23.60;63.20
40662;DHT22;26349;51.202;4.444;2022-07-09T08:05:48;23.80;62.70
40662;DHT22;26349;51.202;4.444;2022-07-09T08:08:14;23.90;62.30
40662;DHT22;26349;51.202;4.444;2022-07-09T08:10:40;23.90;62.20
40662;DHT22;26349;51.202;4.444;2022-07-09T08:13:05;23.90;62.10
40662;DHT22;26349;51.202;4.444;2022-07-09T08:15:31;23.90;62.00
40662;DHT22;26349;51.202;4.444;2022-07-09T08:17:57;23.70;62.50
40662;DHT22;26349;51.202;4.444;2022-07-09T08:20:22;23.50;63.40
40662;DHT22;26349;51.202;4.444;2022-07-09T08:22:48;23.50;63.80
40662;DHT22;26349;51.202;4.444;2022-07-09T08:25:14;23.50;63.60
40662;DHT22;26349;51.202;4.444;2022-07-09T08:27:40;23.40;64.50
40662;DHT22;26349;51.202;4.444;2022-07-09T08:30:06;23.50;64.10
40662;DHT22;26349;51.202;4.444;2022-07-09T08:32:32;23.80;62.70
40662;DHT22;26349;51.202;4.444;2022-07-09T08:34:58;24.20;62.20
40662;DHT22;26349;51.202;4.444;2022-07-09T08:37:24;24.60;61.10
40662;DHT22;26349;51.202;4.444;2022-07-09T08:39:49;24.80;59.20
40662;DHT22;26349;51.202;4.444;2022-07-09T08:42:16;24.70;60.00
40662;DHT22;26349;51.202;4.444;2022-07-09T08:44:43;24.60;60.30
40662;DHT22;26349;51.202;4.444;2022-07-09T08:47:12;24.30;61.20
40662;DHT22;26349;51.202;4.444;2022-07-09T08:49:40;24.00;62.70
40662;DHT22;26349;51.202;4.444;2022-07-09T08:52:06;24.00;63.00
40662;DHT22;26349;51.202;4.444;2022-07-09T08:54:32;24.20;61.70
40662;DHT22;26349;51.202;4.444;2022-07-09T08:56:59;23.90;63.00
40662;DHT22;26349;51.202;4.444;2022-07-09T08:59:25;23.70;63.60
40662;DHT22;26349;51.202;4.444;2022-07-09T09:01:50;23.80;63.40
40662;DHT22;26349;51.202;4.444;2022-07-09T09:04:17;23.80;63.80
40662;DHT22;26349;51.202;4.444;2022-07-09T09:06:43;24.00;62.30
40662;DHT22;26349;51.202;4.444;2022-07-09T09:09:09;24.30;61.20
40662;DHT22;26349;51.202;4.444;2022-07-09T09:11:36;24.30;61.40
40662;DHT22;26349;51.202;4.444;2022-07-09T09:14:04;24.30;60.90
40662;DHT22;26349;51.202;4.444;2022-07-09T09:16:30;24.60;60.30
40662;DHT22;26349;51.202;4.444;2022-07-09T09:18:56;24.40;59.00
40662;DHT22;26349;51.202;4.444;2022-07-09T09:21:27;24.30;59.90
40662;DHT22;26349;51.202;4.444;2022-07-09T09:23:55;24.50;60.10
40662;DHT22;26349;51.202;4.444;2022-07-09T09:26:26;24.60;59.90
40662;DHT22;26349;51.202;4.444;2022-07-09T09:28:56;24.50;59.70
40662;DHT22;26349;51.202;4.444;2022-07-09T09:31:23;24.30;59.20
40662;DHT22;26349;51.202;4.444;2022-07-09T09:33:51;24.00;59.90
40662;DHT22;26349;51.202;4.444;2022-07-09T09:36:34;24.10;60.40
40662;DHT22;26349;51.202;4.444;2022-07-09T09:39:22;24.30;60.10
40662;DHT22;26349;51.202;4.444;2022-07-09T09:42:05;24.30;59.30
40662;DHT22;26349;51.202;4.444;2022-07-09T09:44:34;24.10;59.70
40662;DHT22;26349;51.202;4.444;2022-07-09T09:47:06;24.20;59.40
40662;DHT22;26349;51.202;4.444;2022-07-09T09:49:34;24.00;59.70
40662;DHT22;26349;51.202;4.444;2022-07-09T09:52:07;23.90;60.20
40662;DHT22;26349;51.202;4.444;2022-07-09T09:54:38;23.80;61.00
40662;DHT22;26349;51.202;4.444;2022-07-09T09:57:08;23.80;61.10
40662;DHT22;26349;51.202;4.444;2022-07-09T09:59:39;23.90;61.40
40662;DHT22;26349;51.202;4.444;2022-07-09T10:02:06;24.10;60.70
40662;DHT22;26349;51.202;4.444;2022-07-09T10:04:35;24.00;60.20
40662;DHT22;26349;51.202;4.444;2022-07-09T10:07:01;24.00;60.10
40662;DHT22;26349;51.202;4.444;2022-07-09T10:09:28;23.90;59.80
40662;DHT22;26349;51.202;4.444;2022-07-09T10:11:54;23.90;59.40
40662;DHT22;26349;51.202;4.444;2022-07-09T10:16:48;23.80;60.10
40662;DHT22;26349;51.202;4.444;2022-07-09T10:19:28;23.80;59.70
40662;DHT22;26349;51.202;4.444;2022-07-09T10:21:59;23.90;59.60
40662;DHT22;26349;51.202;4.444;2022-07-09T10:24:36;23.90;59.20
40662;DHT22;26349;51.202;4.444;2022-07-09T10:27:10;23.80;58.00
40662;DHT22;26349;51.202;4.444;2022-07-09T10:29:58;23.50;58.80
40662;DHT22;26349;51.202;4.444;2022-07-09T10:32:30;23.50;59.10
40662;DHT22;26349;51.202;4.444;2022-07-09T10:34:59;23.30;59.10
40662;DHT22;26349;51.202;4.444;2022-07-09T10:37:42;23.60;58.70
40662;DHT22;26349;51.202;4.444;2022-07-09T10:40:14;23.50;57.80
40662;DHT22;26349;51.202;4.444;2022-07-09T10:42:42;23.30;58.00
40662;DHT22;26349;51.202;4.444;2022-07-09T10:45:22;23.20;59.20
40662;DHT22;26349;51.202;4.444;2022-07-09T10:47:59;23.30;59.00
40662;DHT22;26349;51.202;4.444;2022-07-09T10:50:27;23.40;58.20
40662;DHT22;26349;51.202;4.444;2022-07-09T10:52:53;23.50;58.20
40662;DHT22;26349;51.202;4.444;2022-07-09T10:55:21;23.40;57.40
40662;DHT22;26349;51.202;4.444;2022-07-09T10:57:47;23.70;56.00
40662;DHT22;26349;51.202;4.444;2022-07-09T11:00:17;23.70;55.80
40662;DHT22;26349;51.202;4.444;2022-07-09T11:05:20;23.60;55.40
40662;DHT22;26349;51.202;4.444;2022-07-09T11:10:24;23.70;57.70
40662;DHT22;26349;51.202;4.444;2022-07-09T11:12:52;23.70;57.20
40662;DHT22;26349;51.202;4.444;2022-07-09T11:15:19;23.80;56.80
40662;DHT22;26349;51.202;4.444;2022-07-09T11:17:58;23.80;56.70
40662;DHT22;26349;51.202;4.444;2022-07-09T11:20:26;23.70;56.70
40662;DHT22;26349;51.202;4.444;2022-07-09T11:22:52;23.70;57.30
40662;DHT22;26349;51.202;4.444;2022-07-09T11:25:18;23.70;56.80
40662;DHT22;26349;51.202;4.444;2022-07-09T11:27:44;23.80;57.10
40662;DHT22;26349;51.202;4.444;2022-07-09T11:30:14;23.80;56.70
40662;DHT22;26349;51.202;4.444;2022-07-09T11:32:44;24.00;55.60
40662;DHT22;26349;51.202;4.444;2022-07-09T11:35:11;24.30;55.20
40662;DHT22;26349;51.202;4.444;2022-07-09T11:37:37;24.50;53.90
40662;DHT22;26349;51.202;4.444;2022-07-09T11:40:04;24.50;52.20
40662;DHT22;26349;51.202;4.444;2022-07-09T11:42:30;24.20;52.40
40662;DHT22;26349;51.202;4.444;2022-07-09T11:44:59;23.90;52.70
40662;DHT22;26349;51.202;4.444;2022-07-09T11:47:35;23.70;53.40
40662;DHT22;26349;51.202;4.444;2022-07-09T11:50:15;23.30;54.10
40662;DHT22;26349;51.202;4.444;2022-07-09T11:52:48;23.30;55.00
40662;DHT22;26349;51.202;4.444;2022-07-09T11:55:19;23.20;54.60
40662;DHT22;26349;51.202;4.444;2022-07-09T11:57:57;23.20;55.20
40662;DHT22;26349;51.202;4.444;2022-07-09T12:00:28;23.20;55.60
40662;DHT22;26349;51.202;4.444;2022-07-09T12:02:56;23.30;55.80
40662;DHT22;26349;51.202;4.444;2022-07-09T12:05:34;23.30;55.00
40662;DHT22;26349;51.202;4.444;2022-07-09T12:08:05;23.50;53.20
40662;DHT22;26349;51.202;4.444;2022-07-09T12:10:34;23.20;52.30
40662;DHT22;26349;51.202;4.444;2022-07-09T12:13:04;23.00;53.70
40662;DHT22;26349;51.202;4.444;2022-07-09T12:15:30;22.90;53.60
40662;DHT22;26349;51.202;4.444;2022-07-09T12:17:58;22.90;53.70
40662;DHT22;26349;51.202;4.444;2022-07-09T12:20:26;22.90;52.40
40662;DHT22;26349;51.202;4.444;2022-07-09T12:22:53;23.20;50.20
40662;DHT22;26349;51.202;4.444;2022-07-09T12:25:19;23.20;49.70
40662;DHT22;26349;51.202;4.444;2022-07-09T12:27:46;23.10;50.50
40662;DHT22;26349;51.202;4.444;2022-07-09T12:30:12;23.10;51.10
40662;DHT22;26349;51.202;4.444;2022-07-09T12:32:39;23.10;50.20
40662;DHT22;26349;51.202;4.444;2022-07-09T12:35:06;23.20;50.30
40662;DHT22;26349;51.202;4.444;2022-07-09T12:37:32;23.20;49.10
40662;DHT22;26349;51.202;4.444;2022-07-09T12:40:05;23.20;48.90
40662;DHT22;26349;51.202;4.444;2022-07-09T12:42:31;23.10;49.50
40662;DHT22;26349;51.202;4.444;2022-07-09T12:44:57;23.00;49.30
40662;DHT22;26349;51.202;4.444;2022-07-09T12:47:23;23.10;50.00
40662;DHT22;26349;51.202;4.444;2022-07-09T12:49:49;23.20;49.50
40662;DHT22;26349;51.202;4.444;2022-07-09T12:52:15;23.10;49.50
40662;DHT22;26349;51.202;4.444;2022-07-09T12:54:41;23.00;49.70
40662;DHT22;26349;51.202;4.444;2022-07-09T12:57:07;23.00;49.70
40662;DHT22;26349;51.202;4.444;2022-07-09T12:59:33;22.90;49.50
40662;DHT22;26349;51.202;4.444;2022-07-09T13:01:59;22.80;50.00
40662;DHT22;26349;51.202;4.444;2022-07-09T13:04:25;22.80;50.40
40662;DHT22;26349;51.202;4.444;2022-07-09T13:06:50;22.80;49.80
40662;DHT22;26349;51.202;4.444;2022-07-09T13:09:16;22.80;49.00
40662;DHT22;26349;51.202;4.444;2022-07-09T13:11:42;22.80;49.30
40662;DHT22;26349;51.202;4.444;2022-07-09T13:14:16;22.80;49.30
40662;DHT22;26349;51.202;4.444;2022-07-09T13:16:42;22.80;48.40
40662;DHT22;26349;51.202;4.444;2022-07-09T13:19:08;22.80;48.50
40662;DHT22;26349;51.202;4.444;2022-07-09T13:21:34;22.80;49.20
40662;DHT22;26349;51.202;4.444;2022-07-09T13:23:59;22.80;49.20
40662;DHT22;26349;51.202;4.444;2022-07-09T13:26:26;22.80;49.10
40662;DHT22;26349;51.202;4.444;2022-07-09T13:28:51;22.80;48.90
40662;DHT22;26349;51.202;4.444;2022-07-09T13:31:17;22.80;48.80
40662;DHT22;26349;51.202;4.444;2022-07-09T13:33:46;22.80;48.40
40662;DHT22;26349;51.202;4.444;2022-07-09T13:36:12;22.80;47.90
40662;DHT22;26349;51.202;4.444;2022-07-09T13:38:38;22.80;48.40
40662;DHT22;26349;51.202;4.444;2022-07-09T13:41:04;22.80;47.90
40662;DHT22;26349;51.202;4.444;2022-07-09T13:43:30;22.70;48.70
40662;DHT22;26349;51.202;4.444;2022-07-09T13:45:57;22.80;48.40
40662;DHT22;26349;51.202;4.444;2022-07-09T13:48:24;22.70;48.00
40662;DHT22;26349;51.202;4.444;2022-07-09T13:50:50;22.70;48.30
40662;DHT22;26349;51.202;4.444;2022-07-09T13:53:16;22.80;48.30
40662;DHT22;26349;51.202;4.444;2022-07-09T13:55:42;22.70;47.70
40662;DHT22;26349;51.202;4.444;2022-07-09T13:58:08;22.60;48.00
40662;DHT22;26349;51.202;4.444;2022-07-09T14:00:33;22.60;48.40
40662;DHT22;26349;51.202;4.444;2022-07-09T14:02:59;22.60;48.60
40662;DHT22;26349;51.202;4.444;2022-07-09T14:05:25;22.60;48.00
40662;DHT22;26349;51.202;4.444;2022-07-09T14:07:51;22.60;48.40
40662;DHT22;26349;51.202;4.444;2022-07-09T14:10:17;22.40;49.50
40662;DHT22;26349;51.202;4.444;2022-07-09T14:12:42;22.70;49.00
40662;DHT22;26349;51.202;4.444;2022-07-09T14:15:08;22.80;48.70
40662;DHT22;26349;51.202;4.444;2022-07-09T14:17:35;23.00;48.60
40662;DHT22;26349;51.202;4.444;2022-07-09T14:20:00;22.80;48.90
40662;DHT22;26349;51.202;4.444;2022-07-09T14:22:26;22.90;49.10
40662;DHT22;26349;51.202;4.444;2022-07-09T14:24:53;22.90;49.90
40662;DHT22;26349;51.202;4.444;2022-07-09T14:27:19;22.90;50.40
40662;DHT22;26349;51.202;4.444;2022-07-09T14:29:45;23.00;50.20
40662;DHT22;26349;51.202;4.444;2022-07-09T14:32:11;22.90;48.30
40662;DHT22;26349;51.202;4.444;2022-07-09T14:34:36;22.90;48.50
40662;DHT22;26349;51.202;4.444;2022-07-09T14:37:03;23.10;49.70
40662;DHT22;26349;51.202;4.444;2022-07-09T14:39:29;23.10;50.00
40662;DHT22;26349;51.202;4.444;2022-07-09T14:41:55;23.10;49.50
40662;DHT22;26349;51.202;4.444;2022-07-09T14:44:20;23.00;49.80
40662;DHT22;26349;51.202;4.444;2022-07-09T14:46:47;22.70;50.20
40662;DHT22;26349;51.202;4.444;2022-07-09T14:49:12;22.80;50.50
40662;DHT22;26349;51.202;4.444;2022-07-09T14:51:39;22.90;51.10
40662;DHT22;26349;51.202;4.444;2022-07-09T14:54:05;22.90;50.50
40662;DHT22;26349;51.202;4.444;2022-07-09T14:56:31;22.90;49.80
40662;DHT22;26349;51.202;4.444;2022-07-09T14:58:57;23.00;50.20
40662;DHT22;26349;51.202;4.444;2022-07-09T15:01:24;22.90;50.40
40662;DHT22;26349;51.202;4.444;2022-07-09T15:03:50;23.00;50.10
40662;DHT22;26349;51.202;4.444;2022-07-09T15:06:16;23.00;50.30
40662;DHT22;26349;51.202;4.444;2022-07-09T15:08:43;23.10;50.40
40662;DHT22;26349;51.202;4.444;2022-07-09T15:11:10;23.00;50.60
40662;DHT22;26349;51.202;4.444;2022-07-09T15:13:35;22.90;50.80
40662;DHT22;26349;51.202;4.444;2022-07-09T15:16:01;22.90;51.20
40662;DHT22;26349;51.202;4.444;2022-07-09T15:18:27;23.00;51.30
40662;DHT22;26349;51.202;4.444;2022-07-09T15:20:52;22.90;51.20
40662;DHT22;26349;51.202;4.444;2022-07-09T15:23:18;22.90;51.20
40662;DHT22;26349;51.202;4.444;2022-07-09T15:25:44;22.70;51.40
40662;DHT22;26349;51.202;4.444;2022-07-09T15:28:09;22.80;51.80
40662;DHT22;26349;51.202;4.444;2022-07-09T15:30:38;22.80;51.40
40662;DHT22;26349;51.202;4.444;2022-07-09T15:33:04;22.70;51.70
40662;DHT22;26349;51.202;4.444;2022-07-09T15:35:30;22.50;51.70